createdAt,value
2017-12-14T00:00:03.840Z,0
2017-12-14T00:01:26.064Z,0
2017-12-14T00:02:47.792Z,0
2017-12-14T00:04:09.875Z,0
2017-12-14T00:05:31.902Z,0
2017-12-14T00:06:53.589Z,0
2017-12-14T00:08:15.587Z,0
2017-12-14T00:09:37.392Z,0
2017-12-14T00:10:59.208Z,0
2017-12-14T00:12:20.725Z,0
2017-12-14T00:13:42.932Z,0
2017-12-14T00:15:04.316Z,0
2017-12-14T00:16:26.096Z,0
2017-12-14T00:17:48.055Z,0
2017-12-14T00:19:09.227Z,0
2017-12-14T00:20:30.948Z,0
2017-12-14T00:21:52.630Z,0
2017-12-14T00:23:14.594Z,0
2017-12-14T00:24:36.026Z,0
2017-12-14T00:25:57.715Z,0
2017-12-14T00:27:19.404Z,0
2017-12-14T00:28:40.853Z,0
2017-12-14T00:30:02.285Z,0
2017-12-14T00:31:23.713Z,0
2017-12-14T00:32:45.963Z,0
2017-12-14T00:34:07.431Z,0
2017-12-14T00:35:29.407Z,0
2017-12-14T00:36:51.365Z,0
2017-12-14T00:38:13.173Z,0
2017-12-14T00:39:34.863Z,0
2017-12-14T00:40:56.616Z,0
2017-12-14T00:42:18.652Z,0
2017-12-14T00:43:40.082Z,0
2017-12-14T00:45:01.825Z,0
2017-12-14T00:46:23.829Z,0
2017-12-14T00:47:45.788Z,0
2017-12-14T00:49:08.004Z,0
2017-12-14T00:50:29.695Z,0
2017-12-14T00:51:51.663Z,0
2017-12-14T00:53:13.671Z,0
2017-12-14T00:54:35.496Z,0
2017-12-14T00:55:56.967Z,0
2017-12-14T00:57:18.920Z,0
2017-12-14T00:58:40.384Z,0
2017-12-14T01:00:02.373Z,0
2017-12-14T01:01:24.057Z,0
2017-12-14T01:02:46.275Z,0
2017-12-14T01:04:07.683Z,0
2017-12-14T01:05:29.739Z,0
2017-12-14T01:06:51.997Z,0
2017-12-14T01:08:14.333Z,0
2017-12-14T01:09:36.435Z,0
2017-12-14T01:10:58.126Z,0
2017-12-14T01:12:20.349Z,0
2017-12-14T01:13:42.434Z,0
2017-12-14T01:15:04.114Z,0
2017-12-14T01:16:26.089Z,0
2017-12-14T01:17:47.797Z,0
2017-12-14T01:19:09.503Z,0
2017-12-14T01:20:30.980Z,0
2017-12-14T01:21:53.301Z,0
2017-12-14T01:23:15.000Z,0
2017-12-14T01:24:36.941Z,0
2017-12-14T01:25:58.814Z,0
2017-12-14T01:27:20.255Z,0
2017-12-14T01:28:41.671Z,0
2017-12-14T01:30:02.871Z,0
2017-12-14T01:31:24.854Z,0
2017-12-14T01:32:46.804Z,0
2017-12-14T01:34:08.758Z,0
2017-12-14T01:35:30.178Z,0
2017-12-14T01:36:52.138Z,0
2017-12-14T01:38:13.306Z,0
2017-12-14T01:39:35.063Z,0
2017-12-14T01:40:56.583Z,0
2017-12-14T01:42:18.948Z,0
2017-12-14T01:43:40.751Z,0
2017-12-14T01:45:02.563Z,0
2017-12-14T01:46:24.233Z,0
2017-12-14T01:47:46.542Z,0
2017-12-14T01:49:08.247Z,0
2017-12-14T01:50:30.284Z,0
2017-12-14T01:51:51.966Z,0
2017-12-14T01:53:13.642Z,0
2017-12-14T01:54:34.894Z,0
2017-12-14T01:55:56.624Z,0
2017-12-14T01:57:18.315Z,0
2017-12-14T01:58:40.544Z,0
2017-12-14T02:00:02.242Z,0
2017-12-14T02:01:23.787Z,0
2017-12-14T02:02:45.794Z,0
2017-12-14T02:04:07.616Z,0
2017-12-14T02:05:29.288Z,0
2017-12-14T02:06:51.233Z,0
2017-12-14T02:08:13.197Z,0
2017-12-14T02:09:35.453Z,0
2017-12-14T02:10:57.132Z,0
2017-12-14T02:12:18.574Z,0
2017-12-14T02:13:40.519Z,0
2017-12-14T02:15:02.576Z,0
2017-12-14T02:16:24.563Z,0
2017-12-14T02:17:45.997Z,0
2017-12-14T02:19:07.673Z,0
2017-12-14T02:20:29.646Z,0
2017-12-14T02:21:51.336Z,0
2017-12-14T02:23:13.281Z,0
2017-12-14T02:24:35.304Z,0
2017-12-14T02:25:56.748Z,0
2017-12-14T02:27:18.172Z,0
2017-12-14T02:28:40.124Z,0
2017-12-14T02:30:02.229Z,0
2017-12-14T02:31:24.484Z,0
2017-12-14T02:32:46.726Z,0
2017-12-14T02:34:08.419Z,0
2017-12-14T02:35:29.846Z,0
2017-12-14T02:36:51.526Z,0
2017-12-14T02:38:13.597Z,0
2017-12-14T02:39:35.073Z,0
2017-12-14T02:40:56.844Z,0
2017-12-14T02:42:18.819Z,0
2017-12-14T02:43:39.962Z,0
2017-12-14T02:45:01.670Z,0
2017-12-14T02:46:23.360Z,0
2017-12-14T02:47:45.368Z,0
2017-12-14T02:49:06.874Z,0
2017-12-14T02:50:28.566Z,0
2017-12-14T02:51:50.210Z,0
2017-12-14T02:53:12.154Z,0
2017-12-14T02:54:33.353Z,0
2017-12-14T02:55:54.793Z,0
2017-12-14T02:57:17.329Z,0
2017-12-14T02:58:39.012Z,0
2017-12-14T03:00:00.434Z,0
2017-12-14T03:01:22.124Z,0
2017-12-14T03:02:44.083Z,0
2017-12-14T03:04:05.779Z,0
2017-12-14T03:05:27.475Z,0
2017-12-14T03:06:49.224Z,0
2017-12-14T03:08:10.657Z,0
2017-12-14T03:09:32.622Z,0
2017-12-14T03:10:54.355Z,0
2017-12-14T03:12:16.228Z,0
2017-12-14T03:13:37.513Z,0
2017-12-14T03:14:58.922Z,0
2017-12-14T03:16:20.334Z,0
2017-12-14T03:17:42.078Z,0
2017-12-14T03:19:03.818Z,0
2017-12-14T03:20:25.551Z,0
2017-12-14T03:21:47.520Z,0
2017-12-14T03:23:09.753Z,0
2017-12-14T03:24:31.473Z,0
2017-12-14T03:25:53.167Z,0
2017-12-14T03:27:14.861Z,0
2017-12-14T03:28:36.814Z,0
2017-12-14T03:29:58.753Z,0
2017-12-14T03:31:20.495Z,0
2017-12-14T03:32:42.463Z,0
2017-12-14T03:34:03.923Z,0
2017-12-14T03:35:25.612Z,0
2017-12-14T03:36:47.284Z,0
2017-12-14T03:38:08.687Z,0
2017-12-14T03:39:30.533Z,0
2017-12-14T03:40:52.342Z,0
2017-12-14T03:42:14.058Z,0
2017-12-14T03:43:35.744Z,0
2017-12-14T03:44:57.984Z,0
2017-12-14T03:46:20.264Z,0
2017-12-14T03:47:41.953Z,0
2017-12-14T03:49:03.657Z,0
2017-12-14T03:50:25.414Z,0
2017-12-14T03:51:47.084Z,0
2017-12-14T03:53:08.765Z,0
2017-12-14T03:54:30.254Z,0
2017-12-14T03:55:52.204Z,0
2017-12-14T03:57:13.633Z,0
2017-12-14T03:58:35.070Z,0
2017-12-14T03:59:56.794Z,0
2017-12-14T04:01:18.766Z,0
2017-12-14T04:02:40.801Z,0
2017-12-14T04:04:02.873Z,0
2017-12-14T04:05:24.322Z,0
2017-12-14T04:06:45.884Z,0
2017-12-14T04:08:07.576Z,0
2017-12-14T04:09:29.538Z,0
2017-12-14T04:10:50.951Z,0
2017-12-14T04:12:12.755Z,0
2017-12-14T04:13:34.723Z,0
2017-12-14T04:14:56.490Z,0
2017-12-14T04:16:18.817Z,0
2017-12-14T04:17:40.594Z,0
2017-12-14T04:19:01.835Z,0
2017-12-14T04:20:23.262Z,0
2017-12-14T04:21:44.148Z,0
2017-12-14T04:23:05.589Z,0
2017-12-14T04:24:27.384Z,0
2017-12-14T04:25:49.084Z,0
2017-12-14T04:27:10.844Z,0
2017-12-14T04:28:32.533Z,0
2017-12-14T04:29:54.246Z,0
2017-12-14T04:31:15.953Z,0
2017-12-14T04:32:37.934Z,0
2017-12-14T04:33:59.363Z,0
2017-12-14T04:35:21.814Z,0
2017-12-14T04:36:43.520Z,0
2017-12-14T04:38:05.253Z,0
2017-12-14T04:39:27.489Z,0
2017-12-14T04:40:49.728Z,0
2017-12-14T04:42:11.779Z,0
2017-12-14T04:43:33.205Z,0
2017-12-14T04:44:54.901Z,0
2017-12-14T04:46:16.614Z,0
2017-12-14T04:47:38.595Z,0
2017-12-14T04:49:00.595Z,0
2017-12-14T04:50:22.550Z,0
2017-12-14T04:51:44.509Z,0
2017-12-14T04:53:05.663Z,0
2017-12-14T04:54:27.214Z,0
2017-12-14T04:55:48.639Z,0
2017-12-14T04:57:10.630Z,0
2017-12-14T04:58:32.404Z,0
2017-12-14T04:59:54.103Z,0
2017-12-14T05:01:16.055Z,0
2017-12-14T05:02:38.160Z,0
2017-12-14T05:03:59.644Z,0
2017-12-14T05:05:21.595Z,0
2017-12-14T05:06:43.621Z,0
2017-12-14T05:08:05.676Z,0
2017-12-14T05:09:27.387Z,0
2017-12-14T05:10:48.687Z,0
2017-12-14T05:12:10.492Z,0
2017-12-14T05:13:32.188Z,0
2017-12-14T05:14:53.879Z,0
2017-12-14T05:16:15.667Z,0
2017-12-14T05:17:37.107Z,0
2017-12-14T05:18:58.835Z,0
2017-12-14T05:20:20.784Z,0
2017-12-14T05:21:42.734Z,0
2017-12-14T05:23:05.054Z,0
2017-12-14T05:24:26.750Z,0
2017-12-14T05:25:48.445Z,0
2017-12-14T05:27:10.165Z,0
2017-12-14T05:28:32.245Z,0
2017-12-14T05:29:53.937Z,0
2017-12-14T05:31:15.901Z,0
2017-12-14T05:32:37.333Z,0
2017-12-14T05:33:59.033Z,0
2017-12-14T05:35:21.103Z,0
2017-12-14T05:36:42.593Z,0
2017-12-14T05:38:04.712Z,0
2017-12-14T05:39:26.190Z,0
2017-12-14T05:40:48.268Z,0
2017-12-14T05:42:09.420Z,0
2017-12-14T05:43:31.492Z,0
2017-12-14T05:44:53.197Z,0
2017-12-14T05:46:15.474Z,0
2017-12-14T05:47:36.913Z,0
2017-12-14T05:48:58.894Z,0
2017-12-14T05:50:21.305Z,0
2017-12-14T05:51:43.005Z,0
2017-12-14T05:53:05.202Z,0
2017-12-14T05:54:27.448Z,0
2017-12-14T05:55:49.143Z,0
2017-12-14T05:57:11.383Z,0
2017-12-14T05:58:32.884Z,0
2017-12-14T05:59:54.954Z,0
2017-12-14T06:01:16.995Z,0
2017-12-14T06:02:38.984Z,0
2017-12-14T06:04:00.956Z,0
2017-12-14T06:05:22.652Z,0
2017-12-14T06:06:44.624Z,0
2017-12-14T06:08:06.816Z,0
2017-12-14T06:09:28.524Z,0
2017-12-14T06:10:49.961Z,0
2017-12-14T06:12:12.294Z,0
2017-12-14T06:13:34.354Z,0
2017-12-14T06:14:56.360Z,0
2017-12-14T06:16:18.325Z,0
2017-12-14T06:17:40.007Z,0
2017-12-14T06:19:02.042Z,0
2017-12-14T06:20:24.133Z,0
2017-12-14T06:21:45.836Z,0
2017-12-14T06:23:07.826Z,0
2017-12-14T06:24:29.614Z,0
2017-12-14T06:25:52.371Z,0
2017-12-14T06:27:13.903Z,0
2017-12-14T06:28:35.866Z,0
2017-12-14T06:29:57.033Z,0
2017-12-14T06:31:18.734Z,0
2017-12-14T06:32:39.964Z,0
2017-12-14T06:34:01.954Z,0
2017-12-14T06:35:23.658Z,0
2017-12-14T06:36:45.472Z,0
2017-12-14T06:38:07.172Z,0
2017-12-14T06:39:29.140Z,0
2017-12-14T06:40:51.257Z,0
2017-12-14T06:42:12.962Z,0
2017-12-14T06:43:35.184Z,0
2017-12-14T06:44:57.193Z,0
2017-12-14T06:46:19.163Z,0
2017-12-14T06:47:40.641Z,0
2017-12-14T06:49:02.335Z,0
2017-12-14T06:50:23.779Z,0
2017-12-14T06:51:45.212Z,0
2017-12-14T06:53:06.373Z,0
2017-12-14T06:54:27.926Z,0
2017-12-14T06:55:49.613Z,0
2017-12-14T06:57:11.477Z,0
2017-12-14T06:58:32.614Z,0
2017-12-14T06:59:54.314Z,0
2017-12-14T07:01:16.853Z,0
2017-12-14T07:02:38.611Z,0
2017-12-14T07:04:00.046Z,0
2017-12-14T07:05:21.733Z,0
2017-12-14T07:06:43.702Z,0
2017-12-14T07:08:05.397Z,0
2017-12-14T07:09:27.357Z,0
2017-12-14T07:10:48.529Z,0
2017-12-14T07:12:10.588Z,0
2017-12-14T07:13:32.005Z,0
2017-12-14T07:14:53.529Z,0
2017-12-14T07:16:15.236Z,0
2017-12-14T07:17:37.203Z,0
2017-12-14T07:18:59.152Z,0
2017-12-14T07:20:20.633Z,0
2017-12-14T07:21:42.514Z,0
2017-12-14T07:23:04.222Z,0
2017-12-14T07:24:26.431Z,0
2017-12-14T07:25:48.764Z,0
2017-12-14T07:27:10.784Z,0
2017-12-14T07:28:32.792Z,0
2017-12-14T07:29:54.469Z,0
2017-12-14T07:31:15.941Z,0
2017-12-14T07:32:37.669Z,5
2017-12-14T07:33:59.374Z,5
2017-12-14T07:35:21.593Z,5
2017-12-14T07:36:43.277Z,5
2017-12-14T07:38:04.173Z,5
2017-12-14T07:39:25.868Z,5
2017-12-14T07:40:47.851Z,5
2017-12-14T07:42:09.844Z,5
2017-12-14T07:43:31.547Z,5
2017-12-14T07:44:53.283Z,5
2017-12-14T07:46:15.548Z,5
2017-12-14T07:47:37.304Z,10
2017-12-14T07:48:58.733Z,10
2017-12-14T07:50:20.188Z,10
2017-12-14T07:51:41.973Z,10
2017-12-14T07:53:03.937Z,10
2017-12-14T07:54:25.632Z,10
2017-12-14T07:55:47.637Z,10
2017-12-14T07:57:09.760Z,15
2017-12-14T07:58:31.186Z,15
2017-12-14T07:59:52.365Z,15
2017-12-14T08:01:13.881Z,15
2017-12-14T08:02:35.886Z,15
2017-12-14T08:03:57.063Z,15
2017-12-14T08:05:18.888Z,15
2017-12-14T08:06:40.330Z,15
2017-12-14T08:08:02.023Z,20
2017-12-14T08:09:23.452Z,20
2017-12-14T08:10:45.232Z,15
2017-12-14T08:12:07.236Z,15
2017-12-14T08:13:29.232Z,15
2017-12-14T08:14:51.254Z,15
2017-12-14T08:16:13.352Z,15
2017-12-14T08:17:34.785Z,15
2017-12-14T08:18:55.941Z,20
2017-12-14T08:20:17.686Z,20
2017-12-14T08:21:39.895Z,20
2017-12-14T08:23:01.915Z,25
2017-12-14T08:24:24.256Z,25
2017-12-14T08:25:45.957Z,25
2017-12-14T08:27:07.917Z,25
2017-12-14T08:28:29.610Z,30
2017-12-14T08:29:51.555Z,30
2017-12-14T08:31:13.565Z,25
2017-12-14T08:32:35.396Z,25
2017-12-14T08:33:57.093Z,25
2017-12-14T08:35:18.528Z,25
2017-12-14T08:36:40.224Z,30
2017-12-14T08:38:02.052Z,25
2017-12-14T08:39:24.296Z,25
2017-12-14T08:40:46.534Z,25
2017-12-14T08:42:08.023Z,30
2017-12-14T08:43:29.458Z,25
2017-12-14T08:44:51.496Z,25
2017-12-14T08:46:13.499Z,25
2017-12-14T08:47:35.313Z,25
2017-12-14T08:48:57.028Z,30
2017-12-14T08:50:18.724Z,25
2017-12-14T08:51:40.953Z,30
2017-12-14T08:53:02.912Z,35
2017-12-14T08:54:25.152Z,40
2017-12-14T08:55:46.316Z,45
2017-12-14T08:57:08.014Z,55
2017-12-14T08:58:29.711Z,50
2017-12-14T08:59:51.588Z,50
2017-12-14T09:01:13.290Z,55
2017-12-14T09:02:35.250Z,60
2017-12-14T09:03:56.994Z,55
2017-12-14T09:05:18.683Z,60
2017-12-14T09:06:40.633Z,55
2017-12-14T09:08:02.674Z,50
2017-12-14T09:09:24.367Z,55
2017-12-14T09:10:46.388Z,50
2017-12-14T09:12:08.079Z,55
2017-12-14T09:13:30.038Z,50
2017-12-14T09:14:51.814Z,60
2017-12-14T09:16:13.573Z,55
2017-12-14T09:17:35.544Z,55
2017-12-14T09:18:57.497Z,50
2017-12-14T09:20:19.183Z,45
2017-12-14T09:21:40.613Z,35
2017-12-14T09:23:02.606Z,40
2017-12-14T09:24:24.303Z,40
2017-12-14T09:25:45.733Z,40
2017-12-14T09:27:08.102Z,40
2017-12-14T09:28:29.814Z,45
2017-12-14T09:29:52.061Z,50
2017-12-14T09:31:13.865Z,50
2017-12-14T09:32:35.647Z,50
2017-12-14T09:33:57.893Z,60
2017-12-14T09:35:19.642Z,70
2017-12-14T09:36:41.933Z,90
2017-12-14T09:38:03.659Z,115
2017-12-14T09:39:25.435Z,120
2017-12-14T09:40:46.883Z,115
2017-12-14T09:42:08.576Z,115
2017-12-14T09:43:30.289Z,135
2017-12-14T09:44:52.053Z,140
2017-12-14T09:46:14.165Z,120
2017-12-14T09:47:36.151Z,120
2017-12-14T09:48:58.133Z,85
2017-12-14T09:50:19.905Z,70
2017-12-14T09:51:42.327Z,80
2017-12-14T09:53:04.006Z,95
2017-12-14T09:54:25.961Z,85
2017-12-14T09:55:47.775Z,75
2017-12-14T09:57:09.779Z,80
2017-12-14T09:58:31.560Z,95
2017-12-14T09:59:53.648Z,85
2017-12-14T10:01:16.152Z,100
2017-12-14T10:02:38.141Z,95
2017-12-14T10:03:59.851Z,95
2017-12-14T10:05:21.683Z,95
2017-12-14T10:06:43.383Z,100
2017-12-14T10:08:04.546Z,125
2017-12-14T10:09:26.238Z,145
2017-12-14T10:10:47.386Z,170
2017-12-14T10:12:08.839Z,180
2017-12-14T10:13:30.850Z,160
2017-12-14T10:14:52.274Z,145
2017-12-14T10:16:14.455Z,130
2017-12-14T10:17:36.688Z,110
2017-12-14T10:18:58.207Z,105
2017-12-14T10:20:20.183Z,95
2017-12-14T10:21:41.928Z,110
2017-12-14T10:23:04.223Z,110
2017-12-14T10:24:25.649Z,105
2017-12-14T10:25:47.654Z,110
2017-12-14T10:27:09.348Z,110
2017-12-14T10:28:31.586Z,105
2017-12-14T10:29:53.263Z,100
2017-12-14T10:31:14.965Z,105
2017-12-14T10:32:37.201Z,110
2017-12-14T10:33:59.435Z,105
2017-12-14T10:35:21.395Z,110
2017-12-14T10:36:43.663Z,95
2017-12-14T10:38:05.106Z,95
2017-12-14T10:39:26.905Z,130
2017-12-14T10:40:48.324Z,120
2017-12-14T10:42:09.789Z,130
2017-12-14T10:43:32.193Z,120
2017-12-14T10:44:54.328Z,110
2017-12-14T10:46:16.024Z,80
2017-12-14T10:47:38.256Z,100
2017-12-14T10:49:00.296Z,100
2017-12-14T10:50:21.973Z,95
2017-12-14T10:51:43.657Z,110
2017-12-14T10:53:05.463Z,125
2017-12-14T10:54:27.169Z,135
2017-12-14T10:55:49.150Z,130
2017-12-14T10:57:10.715Z,125
2017-12-14T10:58:32.149Z,120
2017-12-14T10:59:54.184Z,110
2017-12-14T11:01:16.430Z,115
2017-12-14T11:02:38.167Z,110
2017-12-14T11:03:59.866Z,100
2017-12-14T11:05:22.105Z,105
2017-12-14T11:06:43.803Z,90
2017-12-14T11:08:05.815Z,80
2017-12-14T11:09:28.110Z,80
2017-12-14T11:10:50.077Z,85
2017-12-14T11:12:12.114Z,80
2017-12-14T11:13:34.124Z,80
2017-12-14T11:14:55.830Z,75
2017-12-14T11:16:17.946Z,75
2017-12-14T11:17:40.287Z,70
2017-12-14T11:19:01.713Z,60
2017-12-14T11:20:23.424Z,60
2017-12-14T11:21:45.213Z,60
2017-12-14T11:23:07.041Z,65
2017-12-14T11:24:43.891Z,65
2017-12-14T11:26:05.785Z,65
2017-12-14T11:27:27.273Z,70
2017-12-14T11:28:49.060Z,65
2017-12-14T11:30:10.746Z,70
2017-12-14T11:31:32.702Z,75
2017-12-14T11:32:54.394Z,80
2017-12-14T11:34:16.079Z,85
2017-12-14T11:35:37.799Z,95
2017-12-14T11:37:00.224Z,110
2017-12-14T11:38:22.263Z,110
2017-12-14T11:39:43.947Z,110
2017-12-14T11:41:05.424Z,120
2017-12-14T11:42:27.166Z,140
2017-12-14T11:43:49.399Z,175
2017-12-14T11:45:11.707Z,150
2017-12-14T11:46:32.863Z,150
2017-12-14T11:47:54.589Z,160
2017-12-14T11:49:16.318Z,160
2017-12-14T11:50:38.291Z,140
2017-12-14T11:52:00.366Z,140
2017-12-14T11:53:22.647Z,120
2017-12-14T11:54:44.632Z,120
2017-12-14T11:56:06.861Z,85
2017-12-14T11:57:28.845Z,90
2017-12-14T11:58:50.936Z,100
2017-12-14T12:00:12.655Z,100
2017-12-14T12:01:34.354Z,105
2017-12-14T12:02:56.184Z,105
2017-12-14T12:04:17.935Z,125
2017-12-14T12:05:39.377Z,125
2017-12-14T12:07:00.815Z,80
2017-12-14T12:08:22.835Z,75
2017-12-14T12:09:44.807Z,90
2017-12-14T12:11:06.498Z,90
2017-12-14T12:12:28.478Z,110
2017-12-14T12:13:50.696Z,115
2017-12-14T12:15:12.417Z,120
2017-12-14T12:16:34.585Z,110
2017-12-14T12:17:56.556Z,120
2017-12-14T12:19:18.533Z,145
2017-12-14T12:20:40.225Z,145
2017-12-14T12:22:01.668Z,130
2017-12-14T12:23:23.108Z,115
2017-12-14T12:24:44.666Z,90
2017-12-14T12:26:06.404Z,75
2017-12-14T12:27:28.436Z,55
2017-12-14T12:28:50.134Z,70
2017-12-14T12:30:11.704Z,75
2017-12-14T12:31:33.450Z,65
2017-12-14T12:32:55.435Z,60
2017-12-14T12:34:16.897Z,65
2017-12-14T12:35:38.890Z,85
2017-12-14T12:37:00.679Z,90
2017-12-14T12:38:22.948Z,110
2017-12-14T12:39:45.256Z,95
2017-12-14T12:41:07.514Z,85
2017-12-14T12:42:29.564Z,60
2017-12-14T12:43:51.886Z,45
2017-12-14T12:45:13.859Z,60
2017-12-14T12:46:35.618Z,50
2017-12-14T12:47:57.337Z,45
2017-12-14T12:49:19.335Z,50
2017-12-14T12:50:41.577Z,65
2017-12-14T12:52:03.276Z,55
2017-12-14T12:53:24.706Z,50
2017-12-14T12:54:46.541Z,65
2017-12-14T12:56:08.543Z,90
2017-12-14T12:57:30.227Z,90
2017-12-14T12:58:51.949Z,65
2017-12-14T13:00:13.658Z,45
2017-12-14T13:01:35.364Z,35
2017-12-14T13:02:57.055Z,45
2017-12-14T13:04:18.507Z,60
2017-12-14T13:05:40.495Z,50
2017-12-14T13:07:02.923Z,40
2017-12-14T13:08:24.375Z,35
2017-12-14T13:09:46.671Z,35
2017-12-14T13:11:08.091Z,40
2017-12-14T13:12:30.065Z,45
2017-12-14T13:13:52.395Z,45
2017-12-14T13:15:14.412Z,50
2017-12-14T13:16:36.404Z,60
2017-12-14T13:17:58.373Z,70
2017-12-14T13:19:20.344Z,60
2017-12-14T13:20:42.457Z,55
2017-12-14T13:22:04.578Z,65
2017-12-14T13:23:26.538Z,70
2017-12-14T13:24:48.602Z,70
2017-12-14T13:26:10.569Z,65
2017-12-14T13:27:32.115Z,75
2017-12-14T13:28:53.935Z,75
2017-12-14T13:30:15.991Z,75
2017-12-14T13:31:38.134Z,70
2017-12-14T13:33:00.423Z,70
2017-12-14T13:34:22.740Z,65
2017-12-14T13:35:44.575Z,70
2017-12-14T13:37:06.816Z,65
2017-12-14T13:38:28.515Z,65
2017-12-14T13:39:50.375Z,65
2017-12-14T13:41:11.817Z,65
2017-12-14T13:42:33.264Z,60
2017-12-14T13:43:54.728Z,60
2017-12-14T13:45:16.727Z,60
2017-12-14T13:46:38.695Z,55
2017-12-14T13:48:00.131Z,55
2017-12-14T13:49:22.379Z,55
2017-12-14T13:50:44.335Z,50
2017-12-14T13:52:06.031Z,50
2017-12-14T13:53:28.008Z,45
2017-12-14T13:54:49.775Z,50
2017-12-14T13:56:12.190Z,55
2017-12-14T13:57:34.281Z,50
2017-12-14T13:58:55.736Z,40
2017-12-14T14:00:17.166Z,40
2017-12-14T14:01:39.205Z,40
2017-12-14T14:03:00.926Z,35
2017-12-14T14:04:22.905Z,40
2017-12-14T14:05:44.731Z,40
2017-12-14T14:07:06.589Z,40
2017-12-14T14:08:28.038Z,45
2017-12-14T14:09:49.796Z,45
2017-12-14T14:11:11.807Z,40
2017-12-14T14:12:34.060Z,45
2017-12-14T14:13:56.297Z,40
2017-12-14T14:15:18.601Z,40
2017-12-14T14:16:40.925Z,35
2017-12-14T14:18:03.157Z,35
2017-12-14T14:19:25.416Z,40
2017-12-14T14:20:47.407Z,40
2017-12-14T14:22:09.389Z,40
2017-12-14T14:23:31.691Z,35
2017-12-14T14:24:53.826Z,25
2017-12-14T14:26:15.796Z,25
2017-12-14T14:27:37.834Z,25
2017-12-14T14:28:59.834Z,20
2017-12-14T14:30:22.095Z,15
2017-12-14T14:31:44.092Z,20
2017-12-14T14:33:06.395Z,25
2017-12-14T14:34:28.216Z,25
2017-12-14T14:35:49.644Z,30
2017-12-14T14:37:11.686Z,30
2017-12-14T14:38:33.409Z,25
2017-12-14T14:39:55.149Z,25
2017-12-14T14:41:16.858Z,25
2017-12-14T14:42:38.834Z,20
2017-12-14T14:44:00.830Z,20
2017-12-14T14:45:23.085Z,15
2017-12-14T14:46:44.796Z,10
2017-12-14T14:48:06.528Z,15
2017-12-14T14:49:28.542Z,10
2017-12-14T14:50:50.265Z,10
2017-12-14T14:52:11.770Z,10
2017-12-14T14:53:33.754Z,10
2017-12-14T14:54:55.735Z,10
2017-12-14T14:56:17.992Z,5
2017-12-14T14:57:40.009Z,5
2017-12-14T14:59:01.458Z,5
2017-12-14T15:00:23.445Z,5
2017-12-14T15:01:45.147Z,5
2017-12-14T15:03:07.373Z,5
2017-12-14T15:04:29.686Z,5
2017-12-14T15:05:51.397Z,5
2017-12-14T15:07:13.384Z,5
2017-12-14T15:08:35.664Z,5
2017-12-14T15:09:57.361Z,0
2017-12-14T15:11:19.605Z,0
2017-12-14T15:12:41.305Z,0
2017-12-14T15:14:03.295Z,0
2017-12-14T15:15:24.838Z,0
2017-12-14T15:16:46.597Z,0
2017-12-14T15:18:08.575Z,0
2017-12-14T15:19:30.949Z,0
2017-12-14T15:20:53.296Z,0
2017-12-14T15:22:15.104Z,0
2017-12-14T15:23:37.446Z,0
2017-12-14T15:24:59.537Z,0
2017-12-14T15:26:21.355Z,0
2017-12-14T15:27:43.324Z,0
2017-12-14T15:29:05.601Z,0
2017-12-14T15:30:27.603Z,0
2017-12-14T15:31:49.676Z,0
2017-12-14T15:33:11.775Z,0
2017-12-14T15:34:34.018Z,0
2017-12-14T15:35:56.066Z,0
2017-12-14T15:37:17.778Z,0
2017-12-14T15:38:39.735Z,0
2017-12-14T15:40:01.530Z,0
2017-12-14T15:41:23.306Z,0
2017-12-14T15:42:45.056Z,0
2017-12-14T15:44:07.450Z,0
2017-12-14T15:45:29.525Z,0
2017-12-14T15:46:51.514Z,0
2017-12-14T15:48:13.521Z,0
2017-12-14T15:49:35.769Z,0
2017-12-14T15:50:58.049Z,0
2017-12-14T15:52:20.039Z,0
2017-12-14T15:53:42.055Z,0
2017-12-14T15:55:03.886Z,0
2017-12-14T15:56:26.194Z,0
2017-12-14T15:57:48.316Z,0
2017-12-14T15:59:10.295Z,0
2017-12-14T16:00:31.786Z,0
2017-12-14T16:01:53.913Z,0
2017-12-14T16:03:16.248Z,0
2017-12-14T16:04:37.969Z,0
2017-12-14T16:05:59.745Z,0
2017-12-14T16:07:22.011Z,0
2017-12-14T16:08:44.012Z,0
2017-12-14T16:10:06.343Z,0
2017-12-14T16:11:28.044Z,0
2017-12-14T16:12:49.781Z,0
2017-12-14T16:14:12.032Z,0
2017-12-14T16:15:34.008Z,0
2017-12-14T16:16:56.007Z,0
2017-12-14T16:18:18.016Z,0
2017-12-14T16:19:39.949Z,0
2017-12-14T16:21:01.954Z,0
2017-12-14T16:22:24.231Z,0
2017-12-14T16:23:45.953Z,0
2017-12-14T16:25:07.694Z,0
2017-12-14T16:26:29.699Z,0
2017-12-14T16:27:51.167Z,0
2017-12-14T16:29:12.979Z,0
2017-12-14T16:30:35.417Z,0
2017-12-14T16:31:57.501Z,0
2017-12-14T16:33:19.752Z,0
2017-12-14T16:34:41.499Z,0
2017-12-14T16:36:03.626Z,0
2017-12-14T16:37:25.762Z,0
2017-12-14T16:38:47.751Z,0
2017-12-14T16:40:09.774Z,0
2017-12-14T16:41:31.585Z,0
2017-12-14T16:42:53.899Z,0
2017-12-14T16:44:16.024Z,0
2017-12-14T16:45:37.864Z,0
2017-12-14T16:47:00.117Z,0
2017-12-14T16:48:22.545Z,0
2017-12-14T16:49:44.608Z,0
2017-12-14T16:51:06.887Z,0
2017-12-14T16:52:28.318Z,0
2017-12-14T16:53:50.460Z,0
2017-12-14T16:55:12.799Z,0
2017-12-14T16:56:35.175Z,0
2017-12-14T16:57:57.263Z,0
2017-12-14T16:59:19.225Z,0
2017-12-14T17:00:41.218Z,0
2017-12-14T17:02:03.097Z,0
2017-12-14T17:03:25.377Z,0
2017-12-14T17:04:47.727Z,0
2017-12-14T17:06:10.016Z,0
2017-12-14T17:07:32.381Z,0
2017-12-14T17:08:54.118Z,0
2017-12-14T17:10:15.828Z,0
2017-12-14T17:11:38.098Z,0
2017-12-14T17:12:59.621Z,0
2017-12-14T17:14:21.064Z,0
2017-12-14T17:15:43.104Z,0
2017-12-14T17:17:05.261Z,0
2017-12-14T17:18:27.554Z,0
2017-12-14T17:19:49.618Z,0
2017-12-14T17:21:12.125Z,0
2017-12-14T17:22:34.122Z,0
2017-12-14T17:23:56.118Z,0
2017-12-14T17:25:18.376Z,0
2017-12-14T17:26:40.317Z,0
2017-12-14T17:28:02.614Z,0
2017-12-14T17:29:24.407Z,0
2017-12-14T17:30:46.980Z,0
2017-12-14T17:32:09.171Z,0
2017-12-14T17:33:31.459Z,0
2017-12-14T17:34:53.998Z,0
2017-12-14T17:36:15.724Z,0
2017-12-14T17:37:37.863Z,0
2017-12-14T17:38:59.880Z,0
2017-12-14T17:40:21.895Z,0
2017-12-14T17:41:44.164Z,0
2017-12-14T17:43:06.423Z,0
2017-12-14T17:44:28.473Z,0
2017-12-14T17:45:50.604Z,0
2017-12-14T17:47:12.603Z,0
2017-12-14T17:48:34.872Z,0
2017-12-14T17:49:56.319Z,0
2017-12-14T17:51:18.650Z,0
2017-12-14T17:52:40.646Z,0
2017-12-14T17:54:02.231Z,0
2017-12-14T17:55:23.946Z,0
2017-12-14T17:56:46.225Z,0
2017-12-14T17:58:07.707Z,0
2017-12-14T17:59:29.783Z,0
2017-12-14T18:00:51.838Z,0
2017-12-14T18:02:14.102Z,0
2017-12-14T18:03:35.824Z,0
2017-12-14T18:04:57.973Z,0
2017-12-14T18:06:19.975Z,0
2017-12-14T18:07:42.011Z,0
2017-12-14T18:09:03.986Z,0
2017-12-14T18:10:26.247Z,0
2017-12-14T18:11:48.248Z,0
2017-12-14T18:13:10.524Z,0
2017-12-14T18:14:32.811Z,0
2017-12-14T18:15:54.805Z,0
2017-12-14T18:17:17.226Z,0
2017-12-14T18:18:39.495Z,0
2017-12-14T18:20:01.513Z,0
2017-12-14T18:21:23.778Z,0
2017-12-14T18:22:45.764Z,0
2017-12-14T18:24:07.832Z,0
2017-12-14T18:25:29.853Z,0
2017-12-14T18:26:51.579Z,0
2017-12-14T18:28:13.609Z,0
2017-12-14T18:29:35.847Z,0
2017-12-14T18:30:57.902Z,0
2017-12-14T18:32:19.625Z,0
2017-12-14T18:33:41.987Z,0
2017-12-14T18:35:03.993Z,0
2017-12-14T18:36:26.326Z,0
2017-12-14T18:37:48.449Z,0
2017-12-14T18:39:10.174Z,0
2017-12-14T18:40:31.900Z,0
2017-12-14T18:41:54.165Z,0
2017-12-14T18:43:16.458Z,0
2017-12-14T18:44:38.498Z,0
2017-12-14T18:46:00.293Z,0
2017-12-14T18:47:22.397Z,0
2017-12-14T18:48:44.404Z,0
2017-12-14T18:50:06.139Z,0
2017-12-14T18:51:27.846Z,0
2017-12-14T18:52:49.855Z,0
2017-12-14T18:54:12.256Z,0
2017-12-14T18:55:33.994Z,0
2017-12-14T18:56:56.276Z,0
2017-12-14T18:58:18.342Z,0
2017-12-14T18:59:40.353Z,0
2017-12-14T19:01:02.812Z,0
2017-12-14T19:02:24.937Z,0
2017-12-14T19:03:46.943Z,0
2017-12-14T19:05:08.940Z,0
2017-12-14T19:06:31.002Z,0
2017-12-14T19:07:53.305Z,0
2017-12-14T19:09:15.333Z,0
2017-12-14T19:10:37.340Z,0
2017-12-14T19:11:59.646Z,0
2017-12-14T19:13:22.047Z,0
2017-12-14T19:14:44.452Z,0
2017-12-14T19:16:06.562Z,0
2017-12-14T19:17:28.718Z,0
2017-12-14T19:18:50.816Z,0
2017-12-14T19:20:13.154Z,0
2017-12-14T19:21:35.424Z,0
2017-12-14T19:22:57.817Z,0
2017-12-14T19:24:19.593Z,0
2017-12-14T19:25:41.736Z,0
2017-12-14T19:27:03.905Z,0
2017-12-14T19:28:25.722Z,0
2017-12-14T19:29:47.718Z,0
2017-12-14T19:31:10.105Z,0
2017-12-14T19:32:32.385Z,0
2017-12-14T19:33:54.809Z,0
2017-12-14T19:35:16.865Z,0
2017-12-14T19:36:39.191Z,0
2017-12-14T19:38:00.755Z,0
2017-12-14T19:39:22.904Z,0
2017-12-14T19:40:44.965Z,0
2017-12-14T19:42:07.796Z,0
2017-12-14T19:43:30.174Z,0
2017-12-14T19:44:52.579Z,0
2017-12-14T19:46:14.329Z,0
2017-12-14T19:47:36.670Z,0
2017-12-14T19:48:58.680Z,0
2017-12-14T19:50:21.072Z,0